createdAt,value
2023-05-08T00:00:57.460Z,7.92
2023-05-08T00:03:24.059Z,10.83
2023-05-08T00:05:50.569Z,7.77
2023-05-08T00:08:17.050Z,9.54
2023-05-08T00:10:43.611Z,10.65
2023-05-08T00:13:10.020Z,7.89
2023-05-08T00:15:36.447Z,8.95
2023-05-08T00:18:02.902Z,7.38
2023-05-08T00:20:29.389Z,10.27
2023-05-08T00:22:55.770Z,7.45
2023-05-08T00:25:22.186Z,4.47
2023-05-08T00:27:48.631Z,10.30
2023-05-08T00:30:15.052Z,4.37
2023-05-08T00:32:41.585Z,2.99
2023-05-08T00:35:07.969Z,3.13
2023-05-08T00:37:34.386Z,2.85
2023-05-08T00:40:00.783Z,2.89
2023-05-08T00:42:27.157Z,2.89
2023-05-08T00:44:53.543Z,2.56
2023-05-08T00:47:19.957Z,2.59
2023-05-08T00:49:46.352Z,2.54
2023-05-08T00:52:12.762Z,2.47
2023-05-08T00:54:39.177Z,2.54
2023-05-08T00:57:05.607Z,2.79
2023-05-08T00:59:32.031Z,2.38
2023-05-08T01:01:58.540Z,2.54
2023-05-08T01:04:25.034Z,2.57
2023-05-08T01:06:51.433Z,2.59
2023-05-08T01:09:17.801Z,2.70
2023-05-08T01:11:44.156Z,2.92
2023-05-08T01:14:10.542Z,2.69
2023-05-08T01:16:36.964Z,2.70
2023-05-08T01:19:03.310Z,2.86
2023-05-08T01:21:29.694Z,2.78
2023-05-08T01:23:56.053Z,2.77
2023-05-08T01:26:22.424Z,2.59
2023-05-08T01:28:48.791Z,2.81
2023-05-08T01:31:15.169Z,2.92
2023-05-08T01:33:41.577Z,3.02
2023-05-08T01:36:07.977Z,2.85
2023-05-08T01:38:34.322Z,2.99
2023-05-08T01:41:00.887Z,2.80
2023-05-08T01:43:27.256Z,2.76
2023-05-08T01:45:53.636Z,2.68
2023-05-08T01:48:20.021Z,3.01
2023-05-08T01:50:46.392Z,3.09
2023-05-08T01:53:12.773Z,3.42
2023-05-08T01:55:39.123Z,3.32
2023-05-08T01:58:05.532Z,3.48
2023-05-08T02:00:31.955Z,3.61
2023-05-08T02:02:58.521Z,3.58
2023-05-08T02:05:25.131Z,3.85
2023-05-08T02:07:51.487Z,3.80
2023-05-08T02:10:18.069Z,3.64
2023-05-08T02:12:44.551Z,3.69
2023-05-08T02:15:10.985Z,3.90
2023-05-08T02:17:37.411Z,4.08
2023-05-08T02:20:03.801Z,4.30
2023-05-08T02:22:30.200Z,4.28
2023-05-08T02:24:56.595Z,4.59
2023-05-08T02:27:22.988Z,4.55
2023-05-08T02:29:49.404Z,4.77
2023-05-08T02:32:15.823Z,4.37
2023-05-08T02:34:48.199Z,4.70
2023-05-08T02:37:25.609Z,4.24
2023-05-08T02:39:52.102Z,4.46
2023-05-08T02:42:18.643Z,4.37
2023-05-08T02:44:45.023Z,4.21
2023-05-08T02:47:11.441Z,4.21
2023-05-08T02:49:37.829Z,4.37
2023-05-08T02:52:04.294Z,4.10
2023-05-08T02:54:30.733Z,3.97
2023-05-08T02:56:57.102Z,4.24
2023-05-08T02:59:23.518Z,4.46
2023-05-08T03:01:49.937Z,4.55
2023-05-08T03:04:16.355Z,4.91
2023-05-08T03:06:42.793Z,5.53
2023-05-08T03:09:09.178Z,5.76
2023-05-08T03:11:35.574Z,6.00
2023-05-08T03:14:01.982Z,6.36
2023-05-08T03:16:31.173Z,6.11
2023-05-08T03:18:57.536Z,6.25
2023-05-08T03:21:24.043Z,6.45
2023-05-08T03:23:50.403Z,6.80
2023-05-08T03:26:16.787Z,7.01
2023-05-08T03:28:43.175Z,6.70
2023-05-08T03:31:09.595Z,6.86
2023-05-08T03:33:36.001Z,7.03
2023-05-08T03:36:02.413Z,6.94
2023-05-08T03:38:28.810Z,6.68
2023-05-08T03:40:55.209Z,6.43
2023-05-08T03:43:21.566Z,6.39
2023-05-08T03:45:47.965Z,7.32
2023-05-08T03:48:14.384Z,7.52
2023-05-08T03:50:40.823Z,7.82
2023-05-08T03:53:07.218Z,8.20
2023-05-08T03:55:33.611Z,8.52
2023-05-08T03:57:59.997Z,9.15
2023-05-08T04:00:26.382Z,8.15
2023-05-08T04:02:52.910Z,7.79
2023-05-08T04:05:19.384Z,7.67
2023-05-08T04:07:45.791Z,8.22
2023-05-08T04:10:12.552Z,7.25
2023-05-08T04:12:39.347Z,6.94
2023-05-08T04:15:05.894Z,6.89
2023-05-08T04:17:32.390Z,7.16
2023-05-08T04:19:58.778Z,9.98
2023-05-08T04:22:25.145Z,7.58
2023-05-08T04:24:51.575Z,7.19
2023-05-08T04:27:17.988Z,6.90
2023-05-08T04:29:44.396Z,7.45
2023-05-08T04:32:10.824Z,7.26
2023-05-08T04:34:37.254Z,7.64
2023-05-08T04:37:03.681Z,7.41
2023-05-08T04:39:30.094Z,7.64
2023-05-08T04:41:56.724Z,7.67
2023-05-08T04:44:23.161Z,6.90
2023-05-08T04:46:49.531Z,7.15
2023-05-08T04:49:15.922Z,7.15
2023-05-08T04:51:42.344Z,6.68
2023-05-08T04:54:08.704Z,6.71
2023-05-08T04:56:35.117Z,6.87
2023-05-08T04:59:01.556Z,6.71
2023-05-08T05:01:27.951Z,6.89
2023-05-08T05:03:54.449Z,6.86
2023-05-08T05:06:20.857Z,6.87
2023-05-08T05:08:47.395Z,7.05
2023-05-08T05:11:13.764Z,7.08
2023-05-08T05:13:40.185Z,7.37
2023-05-08T05:16:06.620Z,7.42
2023-05-08T05:18:33.005Z,7.66
2023-05-08T05:20:59.367Z,7.96
2023-05-08T05:23:25.753Z,7.88
2023-05-08T05:25:52.109Z,7.27
2023-05-08T05:28:18.585Z,7.21
2023-05-08T05:30:44.958Z,7.59
2023-05-08T05:33:11.310Z,7.72
2023-05-08T05:35:37.730Z,7.46
2023-05-08T05:38:04.127Z,9.07
2023-05-08T05:40:30.528Z,9.22
2023-05-08T05:42:57.010Z,7.98
2023-05-08T05:45:23.363Z,7.86
2023-05-08T05:47:50.084Z,7.29
2023-05-08T05:50:18.099Z,7.34
2023-05-08T05:52:44.539Z,7.63
2023-05-08T05:55:11.053Z,7.91
2023-05-08T05:57:37.641Z,8.07
2023-05-08T06:00:04.068Z,8.10
2023-05-08T06:02:30.562Z,8.09
2023-05-08T06:04:57.065Z,7.50
2023-05-08T06:07:23.470Z,7.69
2023-05-08T06:09:49.884Z,8.02
2023-05-08T06:12:16.255Z,6.55
2023-05-08T06:14:42.675Z,6.46
2023-05-08T06:17:09.103Z,5.87
2023-05-08T06:19:35.578Z,6.27
2023-05-08T06:22:01.996Z,6.06
2023-05-08T06:24:28.409Z,6.43
2023-05-08T06:26:54.825Z,6.23
2023-05-08T06:29:21.239Z,5.95
2023-05-08T06:31:47.612Z,6.27
2023-05-08T06:34:14.054Z,6.53
2023-05-08T06:36:40.461Z,6.19
2023-05-08T06:39:06.835Z,6.05
2023-05-08T06:41:33.209Z,6.13
2023-05-08T06:43:59.565Z,6.43
2023-05-08T06:46:26.047Z,6.38
2023-05-08T06:48:52.477Z,6.09
2023-05-08T06:51:18.887Z,6.28
2023-05-08T06:53:45.236Z,6.68
2023-05-08T06:56:11.661Z,6.69
2023-05-08T06:58:38.068Z,6.60
2023-05-08T07:01:04.448Z,5.90
2023-05-08T07:03:30.817Z,6.52
2023-05-08T07:05:57.234Z,5.75
2023-05-08T07:08:23.605Z,5.15
2023-05-08T07:10:50.005Z,4.70
2023-05-08T07:13:16.442Z,4.59
2023-05-08T07:15:42.977Z,4.46
2023-05-08T07:18:09.634Z,4.29
2023-05-08T07:20:36.074Z,3.99
2023-05-08T07:23:02.460Z,3.75
2023-05-08T07:25:28.895Z,4.07
2023-05-08T07:27:55.293Z,4.73
2023-05-08T07:30:21.665Z,4.98
2023-05-08T07:32:48.117Z,4.34
2023-05-08T07:35:14.942Z,4.29
2023-05-08T07:37:41.526Z,4.92
2023-05-08T07:40:07.918Z,4.27
2023-05-08T07:42:34.410Z,3.93
2023-05-08T07:45:00.799Z,3.65
2023-05-08T07:47:27.185Z,3.53
2023-05-08T07:49:53.597Z,3.57
2023-05-08T07:52:19.977Z,3.60
2023-05-08T07:54:46.369Z,3.90
2023-05-08T07:57:12.749Z,3.44
2023-05-08T07:59:39.137Z,3.36
2023-05-08T08:02:05.634Z,3.85
2023-05-08T08:04:32.071Z,3.46
2023-05-08T08:06:58.455Z,3.28
2023-05-08T08:09:25.061Z,2.74
2023-05-08T08:11:51.497Z,2.51
2023-05-08T08:14:17.923Z,5.02
2023-05-08T08:16:44.349Z,3.36
2023-05-08T08:19:10.921Z,2.35
2023-05-08T08:21:37.657Z,2.34
2023-05-08T08:24:04.082Z,2.36
2023-05-08T08:26:30.641Z,2.36
2023-05-08T08:28:57.072Z,1.88
2023-05-08T08:31:23.494Z,2.08
2023-05-08T08:33:49.949Z,2.09
2023-05-08T08:36:16.365Z,2.18
2023-05-08T08:38:43.056Z,2.41
2023-05-08T08:41:09.419Z,2.70
2023-05-08T08:43:35.797Z,2.64
2023-05-08T08:46:02.191Z,2.89
2023-05-08T08:48:28.631Z,3.01
2023-05-08T08:50:55.129Z,2.85
2023-05-08T08:53:21.471Z,2.93
2023-05-08T08:55:47.874Z,2.95
2023-05-08T08:58:14.351Z,3.12
2023-05-08T09:00:40.752Z,3.00
2023-05-08T09:03:07.211Z,3.11
2023-05-08T09:05:33.632Z,2.86
2023-05-08T09:08:00.014Z,3.13
2023-05-08T09:10:26.457Z,2.74
2023-05-08T09:12:52.916Z,3.04
2023-05-08T09:15:19.273Z,2.37
2023-05-08T09:17:45.996Z,2.49
2023-05-08T09:20:12.545Z,3.28
2023-05-08T09:22:39.116Z,3.15
2023-05-08T09:25:05.500Z,3.01
2023-05-08T09:27:31.871Z,2.67
2023-05-08T09:29:58.298Z,2.51
2023-05-08T09:32:24.660Z,1.91
2023-05-08T09:34:51.128Z,2.04
2023-05-08T09:37:17.517Z,2.13
2023-05-08T09:39:43.902Z,1.87
2023-05-08T09:42:10.314Z,1.87
2023-05-08T09:44:36.711Z,1.99
2023-05-08T09:47:03.092Z,2.14
2023-05-08T09:49:29.464Z,2.77
2023-05-08T09:51:56.034Z,2.53
2023-05-08T09:54:22.427Z,2.83
2023-05-08T09:56:48.852Z,2.87
2023-05-08T09:59:15.271Z,2.70
2023-05-08T10:01:41.821Z,4.33
2023-05-08T10:04:08.527Z,3.04
2023-05-08T10:06:34.903Z,3.01
2023-05-08T10:09:01.269Z,2.23
2023-05-08T10:11:27.651Z,1.89
2023-05-08T10:13:54.015Z,2.35
2023-05-08T10:16:20.453Z,1.86
2023-05-08T10:18:46.882Z,1.63
2023-05-08T10:21:13.268Z,2.09
2023-05-08T10:23:39.681Z,2.07
2023-05-08T10:26:06.084Z,1.95
2023-05-08T10:28:32.466Z,1.89
2023-05-08T10:30:59.105Z,2.03
2023-05-08T10:33:25.561Z,1.40
2023-05-08T10:35:51.941Z,1.79
2023-05-08T10:38:18.372Z,2.08
2023-05-08T10:40:44.774Z,1.87
2023-05-08T10:43:11.149Z,1.70
2023-05-08T10:45:37.558Z,1.47
2023-05-08T10:48:04.016Z,1.56
2023-05-08T10:50:30.480Z,1.56
2023-05-08T10:52:56.915Z,1.45
2023-05-08T10:55:23.307Z,2.26
2023-05-08T10:57:49.781Z,2.63
2023-05-08T11:00:16.314Z,1.39
2023-05-08T11:02:42.882Z,1.69
2023-05-08T11:05:09.329Z,1.66
2023-05-08T11:07:35.714Z,1.01
2023-05-08T11:10:02.126Z,1.28
2023-05-08T11:12:28.543Z,2.18
2023-05-08T11:14:55.038Z,1.22
2023-05-08T11:17:21.537Z,1.21
2023-05-08T11:19:47.926Z,1.48
2023-05-08T11:22:14.364Z,1.32
2023-05-08T11:24:40.877Z,1.21
2023-05-08T11:27:07.383Z,1.00
2023-05-08T11:29:33.766Z,1.09
2023-05-08T11:32:00.302Z,1.29
2023-05-08T11:34:26.818Z,1.84
2023-05-08T11:36:53.169Z,1.49
2023-05-08T11:39:19.669Z,1.17
2023-05-08T11:41:46.037Z,1.59
2023-05-08T11:44:14.362Z,1.16
2023-05-08T11:46:41.178Z,1.18
2023-05-08T11:49:07.598Z,1.22
2023-05-08T11:51:34.083Z,0.96
2023-05-08T11:54:00.457Z,1.13
2023-05-08T11:56:26.942Z,1.12
2023-05-08T11:58:53.377Z,1.10
2023-05-08T12:01:19.758Z,1.07
2023-05-08T12:03:46.332Z,1.57
2023-05-08T12:06:12.860Z,1.54
2023-05-08T12:08:39.256Z,1.18
2023-05-08T12:11:05.662Z,1.27
2023-05-08T12:13:32.342Z,0.98
2023-05-08T12:15:58.746Z,0.82
2023-05-08T12:18:25.374Z,1.05
2023-05-08T12:20:51.980Z,0.72
2023-05-08T12:23:18.369Z,1.01
2023-05-08T12:25:44.756Z,0.95
2023-05-08T12:28:11.233Z,1.21
2023-05-08T12:30:37.649Z,1.32
2023-05-08T12:33:04.070Z,1.69
2023-05-08T12:35:30.596Z,1.40
2023-05-08T12:37:57.032Z,0.97
2023-05-08T12:40:23.469Z,1.34
2023-05-08T12:42:49.855Z,1.55
2023-05-08T12:45:16.288Z,1.30
2023-05-08T12:47:42.711Z,2.64
2023-05-08T12:50:09.177Z,1.94
2023-05-08T12:52:35.583Z,1.91
2023-05-08T12:55:01.979Z,1.48
2023-05-08T12:57:28.343Z,1.15
2023-05-08T12:59:55.220Z,1.20
2023-05-08T13:02:22.254Z,1.05
2023-05-08T13:04:48.970Z,1.19
2023-05-08T13:07:15.594Z,1.73
2023-05-08T13:09:42.012Z,2.14
2023-05-08T13:12:08.398Z,3.16
2023-05-08T13:14:34.800Z,2.18
2023-05-08T13:17:01.540Z,1.48
2023-05-08T13:19:28.156Z,1.42
2023-05-08T13:21:54.572Z,1.06
2023-05-08T13:24:20.949Z,0.94
2023-05-08T13:26:47.346Z,1.00
2023-05-08T13:29:13.825Z,1.18
2023-05-08T13:31:40.355Z,1.02
2023-05-08T13:34:06.801Z,1.09
2023-05-08T13:36:33.192Z,1.25
2023-05-08T13:38:59.581Z,1.10
2023-05-08T13:41:25.970Z,1.29
2023-05-08T13:43:52.470Z,1.46
2023-05-08T13:46:19.037Z,1.38
2023-05-08T13:48:45.463Z,1.58
2023-05-08T13:51:11.970Z,1.21
2023-05-08T13:53:38.414Z,1.11
2023-05-08T13:56:04.840Z,1.42
2023-05-08T13:58:31.280Z,1.08
2023-05-08T14:00:57.729Z,1.06
2023-05-08T14:03:24.248Z,1.13
2023-05-08T14:05:50.712Z,1.21
2023-05-08T14:08:17.195Z,1.26
2023-05-08T14:10:43.650Z,1.29
2023-05-08T14:13:10.116Z,0.88
2023-05-08T14:15:37.637Z,1.68
2023-05-08T14:18:04.339Z,2.42
2023-05-08T14:20:30.793Z,2.58
2023-05-08T14:23:00.000Z,1.49
2023-05-08T14:25:26.756Z,1.44
2023-05-08T14:27:53.316Z,1.44
2023-05-08T14:30:19.710Z,1.56
2023-05-08T14:32:46.272Z,1.32
2023-05-08T14:35:13.065Z,1.09
2023-05-08T14:37:39.649Z,1.45
2023-05-08T14:40:06.045Z,1.05
2023-05-08T14:42:32.445Z,1.65
2023-05-08T14:44:58.944Z,2.92
2023-05-08T14:47:25.570Z,1.14
2023-05-08T14:49:52.098Z,0.90
2023-05-08T14:52:18.467Z,1.13
2023-05-08T14:54:45.179Z,0.93
2023-05-08T14:57:11.823Z,0.92
2023-05-08T15:02:24.655Z,1.02
2023-05-08T15:04:51.069Z,0.90
2023-05-08T15:07:17.470Z,0.87
2023-05-08T15:09:43.895Z,3.00
2023-05-08T15:12:10.304Z,2.07
2023-05-08T15:14:37.936Z,1.12
2023-05-08T15:17:04.461Z,1.11
2023-05-08T15:19:30.913Z,2.57
2023-05-08T15:21:57.344Z,2.25
2023-05-08T15:24:23.900Z,1.23
2023-05-08T15:26:50.386Z,1.61
2023-05-08T15:29:16.803Z,1.57
2023-05-08T15:31:43.234Z,1.57
2023-05-08T15:34:09.708Z,1.25
2023-05-08T15:36:36.181Z,1.41
2023-05-08T15:39:02.562Z,1.43
2023-05-08T15:41:29.041Z,1.43
2023-05-08T15:44:00.544Z,2.24
2023-05-08T15:46:27.073Z,4.32
2023-05-08T15:48:53.525Z,1.65
2023-05-08T15:51:19.943Z,1.98
2023-05-08T15:53:46.456Z,1.86
2023-05-08T15:56:12.822Z,1.78
2023-05-08T15:58:39.221Z,1.98
2023-05-08T16:01:05.675Z,1.73
2023-05-08T16:03:32.193Z,1.38
2023-05-08T16:05:59.142Z,1.53
2023-05-08T16:08:25.702Z,1.89
2023-05-08T16:10:52.093Z,1.86
2023-05-08T16:13:18.957Z,1.57
2023-05-08T16:15:45.543Z,1.46
2023-05-08T16:18:12.017Z,1.28
2023-05-08T16:20:38.436Z,1.22
2023-05-08T16:23:04.811Z,1.46
2023-05-08T16:25:31.320Z,1.62
2023-05-08T16:27:57.781Z,2.04
2023-05-08T16:30:24.156Z,2.02
2023-05-08T16:32:50.558Z,1.83
2023-05-08T16:35:17.117Z,1.36
2023-05-08T16:37:43.590Z,1.64
2023-05-08T16:40:10.012Z,1.67
2023-05-08T16:42:36.479Z,1.53
2023-05-08T16:45:02.839Z,1.17
2023-05-08T16:47:29.247Z,1.40
2023-05-08T16:49:55.676Z,1.23
2023-05-08T16:52:22.033Z,4.23
2023-05-08T16:54:48.428Z,2.09
2023-05-08T16:57:14.820Z,1.72
2023-05-08T16:59:41.205Z,1.65
2023-05-08T17:02:07.651Z,1.49
2023-05-08T17:04:34.104Z,1.33
2023-05-08T17:07:00.495Z,1.41
2023-05-08T17:09:26.961Z,1.79
2023-05-08T17:11:53.396Z,4.92
2023-05-08T17:14:19.778Z,2.32
2023-05-08T17:16:46.232Z,2.05
2023-05-08T17:19:12.822Z,1.99
2023-05-08T17:21:39.179Z,1.78
2023-05-08T17:24:05.835Z,1.61
2023-05-08T17:26:32.407Z,1.83
2023-05-08T17:28:58.782Z,2.09
2023-05-08T17:31:25.272Z,1.82
2023-05-08T17:33:51.672Z,1.83
2023-05-08T17:36:18.057Z,1.68
2023-05-08T17:38:47.308Z,1.56
2023-05-08T17:41:13.873Z,2.12
2023-05-08T17:43:40.290Z,1.70
2023-05-08T17:46:06.723Z,1.51
2023-05-08T17:48:33.392Z,1.86
2023-05-08T17:51:00.191Z,1.65
2023-05-08T17:53:26.656Z,1.52
2023-05-08T17:55:53.051Z,2.11
2023-05-08T17:58:19.463Z,1.81
2023-05-08T18:00:45.872Z,1.86
2023-05-08T18:03:12.508Z,2.02
2023-05-08T18:05:39.084Z,2.27
2023-05-08T18:08:05.511Z,2.31
2023-05-08T18:10:31.887Z,2.46
2023-05-08T18:12:58.294Z,3.09
2023-05-08T18:15:24.734Z,3.82
2023-05-08T18:17:51.181Z,3.84
2023-05-08T18:20:17.617Z,3.14
2023-05-08T18:22:43.987Z,2.85
2023-05-08T18:25:10.359Z,2.29
2023-05-08T18:27:36.790Z,1.79
2023-05-08T18:30:03.180Z,1.99
2023-05-08T18:32:29.704Z,1.81
2023-05-08T18:34:56.117Z,2.60
2023-05-08T18:37:22.536Z,3.03
2023-05-08T18:39:48.985Z,2.48
2023-05-08T18:42:15.432Z,2.58
2023-05-08T18:44:44.076Z,2.24
2023-05-08T18:47:10.486Z,2.09
2023-05-08T18:49:39.096Z,2.04
2023-05-08T18:52:05.483Z,2.57
2023-05-08T18:54:31.837Z,2.56
2023-05-08T18:56:58.217Z,2.05
2023-05-08T18:59:24.621Z,1.70
2023-05-08T19:01:51.046Z,2.15
2023-05-08T19:04:17.408Z,1.93
2023-05-08T19:06:43.820Z,2.18
2023-05-08T19:09:10.215Z,1.97
2023-05-08T19:11:36.638Z,1.93
2023-05-08T19:14:03.068Z,2.29
2023-05-08T19:16:29.591Z,2.93
2023-05-08T19:18:56.074Z,2.28
2023-05-08T19:21:22.523Z,2.33
2023-05-08T19:23:48.899Z,2.52
2023-05-08T19:26:15.353Z,2.28
2023-05-08T19:28:41.709Z,2.06
2023-05-08T19:31:08.133Z,2.16
2023-05-08T19:33:34.547Z,1.87
2023-05-08T19:36:01.056Z,1.80
2023-05-08T19:38:27.463Z,2.12
2023-05-08T19:40:57.037Z,2.11
2023-05-08T19:43:24.237Z,7.83
2023-05-08T19:45:50.716Z,2.68
2023-05-08T19:48:18.221Z,2.83
2023-05-08T19:50:44.766Z,2.31
2023-05-08T19:53:11.369Z,2.43
2023-05-08T19:55:37.835Z,2.31
2023-05-08T19:58:04.470Z,2.54
2023-05-08T20:00:30.885Z,2.13
2023-05-08T20:02:57.346Z,1.91
2023-05-08T20:05:23.810Z,1.79
2023-05-08T20:07:50.307Z,2.09
2023-05-08T20:10:16.878Z,1.90
2023-05-08T20:12:43.490Z,1.77
2023-05-08T20:15:10.020Z,1.77
2023-05-08T20:17:36.546Z,1.96
2023-05-08T20:20:04.142Z,1.92
2023-05-08T20:22:30.514Z,1.82
2023-05-08T20:25:01.114Z,1.51
2023-05-08T20:27:29.288Z,1.98
2023-05-08T20:29:55.785Z,1.64
2023-05-08T20:32:22.246Z,1.64
2023-05-08T20:34:48.946Z,1.70
2023-05-08T20:37:15.371Z,1.53
2023-05-08T20:39:41.947Z,1.75
2023-05-08T20:42:08.453Z,1.38
2023-05-08T20:44:36.352Z,1.77
2023-05-08T20:47:02.828Z,1.65
2023-05-08T20:49:34.730Z,1.59
2023-05-08T20:52:04.380Z,1.58
2023-05-08T20:54:33.770Z,1.41
2023-05-08T20:57:00.169Z,1.68
2023-05-08T20:59:26.576Z,1.85
2023-05-08T21:01:53.196Z,2.05
2023-05-08T21:04:19.719Z,1.87
2023-05-08T21:06:46.314Z,1.79
2023-05-08T21:09:12.772Z,1.69
2023-05-08T21:11:39.259Z,1.95
2023-05-08T21:14:05.667Z,1.88
2023-05-08T21:16:34.837Z,1.92
2023-05-08T21:19:01.275Z,1.87
2023-05-08T21:21:27.654Z,2.07
2023-05-08T21:23:54.026Z,1.74
2023-05-08T21:26:20.436Z,1.71
2023-05-08T21:28:46.799Z,2.05
2023-05-08T21:31:13.279Z,1.97
2023-05-08T21:33:39.873Z,1.85
2023-05-08T21:36:06.396Z,1.71
2023-05-08T21:38:34.010Z,1.93
2023-05-08T21:41:00.416Z,1.84
2023-05-08T21:43:26.974Z,1.85
2023-05-08T21:45:53.435Z,1.94
2023-05-08T21:48:21.839Z,1.62
2023-05-08T21:50:48.267Z,1.57
2023-05-08T21:53:14.670Z,1.73
2023-05-08T21:55:41.096Z,2.01
2023-05-08T21:58:07.487Z,1.82
2023-05-08T22:00:36.682Z,1.67
2023-05-08T22:03:04.447Z,1.68
2023-05-08T22:05:30.959Z,1.74
2023-05-08T22:07:57.332Z,1.46
2023-05-08T22:10:23.706Z,1.82
2023-05-08T22:12:50.158Z,1.70
2023-05-08T22:15:28.928Z,1.90
2023-05-08T22:17:56.914Z,2.85
2023-05-08T22:20:23.374Z,2.50
2023-05-08T22:22:49.814Z,3.87
2023-05-08T22:25:16.323Z,4.00
2023-05-08T22:27:45.794Z,3.39
2023-05-08T22:30:12.243Z,2.37
2023-05-08T22:32:38.792Z,2.00
2023-05-08T22:35:05.257Z,2.03
2023-05-08T22:37:31.685Z,1.82
2023-05-08T22:39:58.104Z,1.47
2023-05-08T22:42:24.493Z,1.56
2023-05-08T22:44:50.915Z,1.42
2023-05-08T22:47:17.292Z,1.48
2023-05-08T22:49:43.657Z,1.89
2023-05-08T22:52:10.087Z,2.20
2023-05-08T22:54:36.513Z,1.96
2023-05-08T22:57:02.914Z,1.67
2023-05-08T22:59:29.306Z,1.55
2023-05-08T23:01:55.731Z,1.64
2023-05-08T23:04:22.246Z,3.15
2023-05-08T23:06:48.662Z,3.74
2023-05-08T23:09:15.079Z,2.32
2023-05-08T23:11:41.475Z,2.27
2023-05-08T23:14:07.826Z,1.96
2023-05-08T23:16:34.275Z,1.90
2023-05-08T23:19:00.685Z,2.57
2023-05-08T23:21:27.073Z,2.07
2023-05-08T23:23:53.731Z,2.37
2023-05-08T23:26:22.455Z,3.49
2023-05-08T23:28:48.857Z,2.60
2023-05-08T23:31:15.330Z,1.78
2023-05-08T23:33:41.856Z,3.60
2023-05-08T23:36:08.493Z,1.81
2023-05-08T23:38:34.892Z,1.81
2023-05-08T23:41:04.029Z,1.84
2023-05-08T23:43:30.424Z,1.68
2023-05-08T23:45:56.808Z,1.86
2023-05-08T23:48:23.231Z,1.67
2023-05-08T23:50:49.619Z,1.62
2023-05-08T23:53:15.998Z,1.86
2023-05-08T23:55:42.346Z,1.72
2023-05-08T23:58:08.780Z,1.79
